Time,TemperatureF,DewpointF,PressureIn,WindDirection,WindDirectionDegrees,WindSpeedMPH,WindSpeedGustMPH,Humidity,HourlyPrecipIn,Conditions,Clouds,dailyrainin,SoftwareType,DateUTC
2013-12-03 00:01:00,37.6,33.5,29.84,NE,52,0.0,0.0,85,0.00,,,0.00,WUHU216DAVISVP2,2013-12-03 05:01:00,
2013-12-03 00:02:00,37.6,33.5,29.84,NE,52,0.0,0.0,85,0.00,,,0.00,WUHU216DAVISVP2,2013-12-03 05:02:00,
2013-12-03 00:07:00,37.5,33.4,29.85,NE,52,0.0,0.0,85,0.00,,,0.00,WUHU216DAVISVP2,2013-12-03 05:07:00,
2013-12-03 00:12:00,37.5,33.4,29.85,NE,52,0.0,0.0,85,0.00,,,0.00,WUHU216DAVISVP2,2013-12-03 05:12:00,
2013-12-03 00:17:00,37.2,33.1,29.85,NE,52,0.0,0.0,85,0.00,,,0.00,WUHU216DAVISVP2,2013-12-03 05:17:00,
2013-12-03 00:22:00,37.2,33.1,29.85,NE,52,0.0,0.0,85,0.00,,,0.00,WUHU216DAVISVP2,2013-12-03 05:22:00,
2013-12-03 00:27:00,37.2,33.4,29.85,NE,52,0.0,0.0,86,0.00,,,0.00,WUHU216DAVISVP2,2013-12-03 05:27:00,
2013-12-03 00:32:00,37.2,33.4,29.85,NE,52,0.0,0.0,86,0.00,,,0.00,WUHU216DAVISVP2,2013-12-03 05:32:00,
2013-12-03 00:37:00,37.2,33.4,29.85,NE,52,0.0,0.0,86,0.00,,,0.00,WUHU216DAVISVP2,2013-12-03 05:37:00,
2013-12-03 00:42:00,36.9,33.1,29.85,NE,52,0.0,0.0,86,0.00,,,0.00,WUHU216DAVISVP2,2013-12-03 05:42:00,
2013-12-03 00:47:00,36.8,33.0,29.85,NE,52,0.0,0.0,86,0.00,,,0.00,WUHU216DAVISVP2,2013-12-03 05:47:00,
2013-12-03 00:53:00,36.6,32.5,29.85,NE,52,0.0,0.0,85,0.00,,,0.00,WUHU216DAVISVP2,2013-12-03 05:53:00,
2013-12-03 00:58:00,36.3,32.2,29.85,NE,52,0.0,0.0,85,0.00,,,0.00,WUHU216DAVISVP2,2013-12-03 05:58:00,
2013-12-03 01:03:00,36.3,32.5,29.85,NE,52,0.0,0.0,86,0.00,,,0.00,WUHU216DAVISVP2,2013-12-03 06:03:00,
2013-12-03 01:08:00,36.3,32.5,29.86,NE,52,0.0,0.0,86,0.00,,,0.00,WUHU216DAVISVP2,2013-12-03 06:08:00,
2013-12-03 01:13:00,36.2,32.4,29.86,NE,52,0.0,0.0,86,0.00,,,0.00,WUHU216DAVISVP2,2013-12-03 06:13:00,
2013-12-03 01:18:00,36.2,32.4,29.86,NE,52,0.0,0.0,86,0.00,,,0.00,WUHU216DAVISVP2,2013-12-03 06:18:00,
2013-12-03 01:23:00,36.0,32.2,29.86,NE,52,0.0,0.0,86,0.00,,,0.00,WUHU216DAVISVP2,2013-12-03 06:23:00,
2013-12-03 01:28:00,36.0,32.2,29.86,NE,52,0.0,0.0,86,0.00,,,0.00,WUHU216DAVISVP2,2013-12-03 06:28:00,
2013-12-03 01:33:00,35.9,32.1,29.86,NE,52,0.0,0.0,86,0.00,,,0.00,WUHU216DAVISVP2,2013-12-03 06:33:00,
2013-12-03 01:38:00,35.9,32.1,29.86,NE,52,0.0,0.0,86,0.00,,,0.00,WUHU216DAVISVP2,2013-12-03 06:38:00,
2013-12-03 01:43:00,36.0,32.5,29.86,NE,52,0.0,0.0,87,0.00,,,0.00,WUHU216DAVISVP2,2013-12-03 06:43:00,
2013-12-03 01:48:00,36.0,32.2,29.86,NE,52,0.0,0.0,86,0.00,,,0.00,WUHU216DAVISVP2,2013-12-03 06:48:00,
2013-12-03 01:53:00,36.2,32.4,29.86,NE,52,0.0,0.0,86,0.00,,,0.00,WUHU216DAVISVP2,2013-12-03 06:53:00,
2013-12-03 01:58:00,36.3,32.8,29.86,NE,52,0.0,0.0,87,0.00,,,0.00,WUHU216DAVISVP2,2013-12-03 06:58:00,
2013-12-03 02:03:00,36.3,32.8,29.86,NE,52,0.0,0.0,87,0.00,,,0.00,WUHU216DAVISVP2,2013-12-03 07:03:00,
2013-12-03 02:08:00,36.5,33.0,29.86,NE,52,0.0,0.0,87,0.00,,,0.00,WUHU216DAVISVP2,2013-12-03 07:08:00,
2013-12-03 02:13:00,36.3,32.8,29.86,NE,52,0.0,0.0,87,0.00,,,0.00,WUHU216DAVISVP2,2013-12-03 07:13:00,
2013-12-03 02:18:00,36.6,33.3,29.86,NE,52,0.0,0.0,88,0.00,,,0.00,WUHU216DAVISVP2,2013-12-03 07:18:00,
2013-12-03 02:23:00,36.8,33.3,29.87,NE,52,0.0,0.0,87,0.00,,,0.00,WUHU216DAVISVP2,2013-12-03 07:23:00,
2013-12-03 02:28:00,36.6,33.1,29.87,NE,52,0.0,0.0,87,0.00,,,0.00,WUHU216DAVISVP2,2013-12-03 07:28:00,
2013-12-03 02:33:00,36.6,33.1,29.87,NE,52,0.0,0.0,87,0.00,,,0.00,WUHU216DAVISVP2,2013-12-03 07:33:00,
2013-12-03 02:38:00,36.5,33.0,29.87,NE,52,0.0,0.0,87,0.00,,,0.00,WUHU216DAVISVP2,2013-12-03 07:38:00,
2013-12-03 02:43:00,36.3,32.8,29.87,NE,52,0.0,0.0,87,0.00,,,0.00,WUHU216DAVISVP2,2013-12-03 07:43:00,
2013-12-03 02:48:00,36.3,32.8,29.87,NE,52,0.0,0.0,87,0.00,,,0.00,WUHU216DAVISVP2,2013-12-03 07:48:00,
2013-12-03 02:53:00,36.3,32.8,29.87,NE,52,0.0,0.0,87,0.00,,,0.00,WUHU216DAVISVP2,2013-12-03 07:53:00,
2013-12-03 02:58:00,36.2,32.7,29.87,NE,52,0.0,0.0,87,0.00,,,0.00,WUHU216DAVISVP2,2013-12-03 07:58:00,
2013-12-03 03:03:00,36.0,32.5,29.87,NE,52,0.0,0.0,87,0.00,,,0.00,WUHU216DAVISVP2,2013-12-03 08:03:00,
2013-12-03 03:08:00,36.0,32.5,29.88,NE,52,0.0,0.0,87,0.00,,,0.00,WUHU216DAVISVP2,2013-12-03 08:08:00,
2013-12-03 03:13:00,35.9,32.4,29.88,NE,52,0.0,0.0,87,0.00,,,0.00,WUHU216DAVISVP2,2013-12-03 08:13:00,
2013-12-03 03:18:00,35.8,32.3,29.88,NE,52,0.0,0.0,87,0.00,,,0.00,WUHU216DAVISVP2,2013-12-03 08:18:00,
2013-12-03 03:23:00,35.6,32.1,29.87,NE,52,0.0,0.0,87,0.00,,,0.00,WUHU216DAVISVP2,2013-12-03 08:23:00,
2013-12-03 03:28:00,35.6,32.1,29.87,NE,52,0.0,0.0,87,0.00,,,0.00,WUHU216DAVISVP2,2013-12-03 08:28:00,
2013-12-03 03:33:00,35.5,32.0,29.87,NE,52,0.0,0.0,87,0.00,,,0.00,WUHU216DAVISVP2,2013-12-03 08:33:00,
2013-12-03 03:38:00,35.3,31.8,29.87,NE,52,0.0,0.0,87,0.00,,,0.00,WUHU216DAVISVP2,2013-12-03 08:38:00,
2013-12-03 03:43:00,35.3,31.8,29.87,NE,52,0.0,0.0,87,0.00,,,0.00,WUHU216DAVISVP2,2013-12-03 08:43:00,
2013-12-03 03:48:00,35.6,32.4,29.87,NE,52,0.0,0.0,88,0.00,,,0.00,WUHU216DAVISVP2,2013-12-03 08:48:00,
2013-12-03 03:53:00,35.8,32.6,29.86,NE,52,0.0,0.0,88,0.00,,,0.00,WUHU216DAVISVP2,2013-12-03 08:53:00,
2013-12-03 03:58:00,35.8,32.6,29.86,NE,52,0.0,0.0,88,0.00,,,0.00,WUHU216DAVISVP2,2013-12-03 08:58:00,
2013-12-03 04:03:00,35.6,32.4,29.86,NE,52,0.0,0.0,88,0.00,,,0.00,WUHU216DAVISVP2,2013-12-03 09:03:00,
2013-12-03 04:08:00,35.6,32.4,29.86,NE,52,0.0,0.0,88,0.00,,,0.00,WUHU216DAVISVP2,2013-12-03 09:08:00,
2013-12-03 04:13:00,35.6,32.4,29.86,NE,52,0.0,0.0,88,0.00,,,0.00,WUHU216DAVISVP2,2013-12-03 09:13:00,
2013-12-03 04:18:00,35.5,32.3,29.86,NE,52,0.0,0.0,88,0.00,,,0.00,WUHU216DAVISVP2,2013-12-03 09:18:00,
2013-12-03 04:23:00,35.5,32.3,29.85,NE,52,0.0,0.0,88,0.00,,,0.00,WUHU216DAVISVP2,2013-12-03 09:23:00,
2013-12-03 04:28:00,35.3,32.1,29.85,NE,52,0.0,0.0,88,0.00,,,0.00,WUHU216DAVISVP2,2013-12-03 09:28:00,
2013-12-03 04:33:00,35.3,32.1,29.85,NE,52,0.0,0.0,88,0.00,,,0.00,WUHU216DAVISVP2,2013-12-03 09:33:00,
2013-12-03 04:38:00,35.3,32.1,29.85,NE,52,0.0,0.0,88,0.00,,,0.00,WUHU216DAVISVP2,2013-12-03 09:38:00,
2013-12-03 04:43:00,35.3,32.1,29.85,NE,52,0.0,0.0,88,0.00,,,0.00,WUHU216DAVISVP2,2013-12-03 09:43:00,
2013-12-03 04:48:00,35.3,32.1,29.85,NE,52,0.0,0.0,88,0.00,,,0.00,WUHU216DAVISVP2,2013-12-03 09:48:00,
2013-12-03 04:53:00,35.3,32.1,29.86,NE,52,0.0,0.0,88,0.00,,,0.00,WUHU216DAVISVP2,2013-12-03 09:53:00,
2013-12-03 04:58:00,35.2,32.0,29.86,NE,52,0.0,0.0,88,0.00,,,0.00,WUHU216DAVISVP2,2013-12-03 09:58:00,
2013-12-03 05:03:00,35.3,32.1,29.86,NE,52,0.0,0.0,88,0.00,,,0.00,WUHU216DAVISVP2,2013-12-03 10:03:00,
2013-12-03 05:08:00,35.2,32.0,29.86,NE,52,0.0,0.0,88,0.00,,,0.00,WUHU216DAVISVP2,2013-12-03 10:08:00,
2013-12-03 05:13:00,35.2,32.0,29.86,NE,52,0.0,0.0,88,0.00,,,0.00,WUHU216DAVISVP2,2013-12-03 10:13:00,
2013-12-03 05:18:00,35.2,32.0,29.86,NE,52,0.0,0.0,88,0.00,,,0.00,WUHU216DAVISVP2,2013-12-03 10:18:00,
2013-12-03 05:23:00,35.2,32.0,29.86,NE,52,0.0,0.0,88,0.00,,,0.00,WUHU216DAVISVP2,2013-12-03 10:23:00,
2013-12-03 05:28:00,35.0,31.8,29.86,NE,52,0.0,0.0,88,0.00,,,0.00,WUHU216DAVISVP2,2013-12-03 10:28:00,
2013-12-03 05:33:00,35.0,31.8,29.86,NE,52,0.0,0.0,88,0.00,,,0.00,WUHU216DAVISVP2,2013-12-03 10:33:00,
2013-12-03 05:38:00,35.0,31.8,29.88,NE,52,0.0,0.0,88,0.00,,,0.00,WUHU216DAVISVP2,2013-12-03 10:38:00,
2013-12-03 05:43:00,35.2,32.0,29.88,NE,52,0.0,0.0,88,0.00,,,0.00,WUHU216DAVISVP2,2013-12-03 10:43:00,
2013-12-03 05:48:00,35.3,32.1,29.88,NE,52,0.0,0.0,88,0.00,,,0.00,WUHU216DAVISVP2,2013-12-03 10:48:00,
2013-12-03 05:53:00,35.5,32.3,29.89,NE,52,0.0,0.0,88,0.00,,,0.00,WUHU216DAVISVP2,2013-12-03 10:53:00,
2013-12-03 05:58:00,35.6,32.4,29.89,NE,52,0.0,0.0,88,0.00,,,0.00,WUHU216DAVISVP2,2013-12-03 10:58:00,
2013-12-03 06:03:00,35.6,32.4,29.89,NE,52,0.0,0.0,88,0.00,,,0.00,WUHU216DAVISVP2,2013-12-03 11:03:00,
2013-12-03 06:08:00,35.6,32.4,29.89,NE,52,0.0,0.0,88,0.00,,,0.00,WUHU216DAVISVP2,2013-12-03 11:08:00,
2013-12-03 06:13:00,35.6,32.4,29.89,NE,52,0.0,0.0,88,0.00,,,0.00,WUHU216DAVISVP2,2013-12-03 11:13:00,
2013-12-03 06:18:00,35.6,32.4,29.89,NE,52,0.0,0.0,88,0.00,,,0.00,WUHU216DAVISVP2,2013-12-03 11:18:00,
2013-12-03 06:23:00,35.5,32.3,29.90,NE,52,0.0,0.0,88,0.00,,,0.00,WUHU216DAVISVP2,2013-12-03 11:23:00,
2013-12-03 06:28:00,35.5,32.3,29.90,NE,52,0.0,0.0,88,0.00,,,0.00,WUHU216DAVISVP2,2013-12-03 11:28:00,
2013-12-03 06:33:00,35.3,32.1,29.90,NE,52,0.0,0.0,88,0.00,,,0.00,WUHU216DAVISVP2,2013-12-03 11:33:00,
2013-12-03 06:38:00,35.3,32.1,29.90,NE,52,0.0,0.0,88,0.00,,,0.00,WUHU216DAVISVP2,2013-12-03 11:38:00,
2013-12-03 06:43:00,35.3,32.1,29.90,NE,52,0.0,0.0,88,0.00,,,0.00,WUHU216DAVISVP2,2013-12-03 11:43:00,
2013-12-03 06:48:00,35.3,32.1,29.90,NE,52,0.0,0.0,88,0.00,,,0.00,WUHU216DAVISVP2,2013-12-03 11:48:00,
2013-12-03 06:53:00,35.3,32.1,29.89,NE,52,0.0,0.0,88,0.00,,,0.00,WUHU216DAVISVP2,2013-12-03 11:53:00,
2013-12-03 06:58:00,35.5,32.3,29.89,NE,52,0.0,0.0,88,0.00,,,0.00,WUHU216DAVISVP2,2013-12-03 11:58:00,
2013-12-03 07:03:00,35.8,32.8,29.89,NE,52,0.0,0.0,89,0.00,,,0.00,WUHU216DAVISVP2,2013-12-03 12:03:00,
2013-12-03 07:08:00,35.9,32.9,29.90,NE,52,0.0,0.0,89,0.00,,,0.00,WUHU216DAVISVP2,2013-12-03 12:08:00,
2013-12-03 07:13:00,36.0,33.0,29.90,NE,52,0.0,0.0,89,0.00,,,0.00,WUHU216DAVISVP2,2013-12-03 12:13:00,
2013-12-03 07:18:00,36.2,33.2,29.90,NE,52,0.0,0.0,89,0.00,,,0.00,WUHU216DAVISVP2,2013-12-03 12:18:00,
2013-12-03 07:23:00,36.3,33.3,29.91,NE,52,0.0,0.0,89,0.00,,,0.00,WUHU216DAVISVP2,2013-12-03 12:23:00,
2013-12-03 07:28:00,36.5,33.5,29.91,NE,52,0.0,0.0,89,0.00,,,0.00,WUHU216DAVISVP2,2013-12-03 12:28:00,
2013-12-03 07:34:00,36.8,33.8,29.92,NE,52,0.0,0.0,89,0.00,,,0.00,WUHU216DAVISVP2,2013-12-03 12:34:00,
2013-12-03 07:39:00,36.9,33.9,29.92,NE,52,0.0,0.0,89,0.00,,,0.00,WUHU216DAVISVP2,2013-12-03 12:39:00,
2013-12-03 07:45:00,37.2,34.2,29.92,NE,52,0.0,0.0,89,0.00,,,0.00,WUHU216DAVISVP2,2013-12-03 12:45:00,
2013-12-03 07:50:00,37.5,34.5,29.92,NE,52,0.0,0.0,89,0.00,,,0.00,WUHU216DAVISVP2,2013-12-03 12:50:00,
2013-12-03 07:56:00,37.9,34.9,29.92,NE,52,0.0,0.0,89,0.00,,,0.00,WUHU216DAVISVP2,2013-12-03 12:56:00,
2013-12-03 08:01:00,38.0,35.0,29.92,NE,52,0.0,0.0,89,0.00,,,0.00,WUHU216DAVISVP2,2013-12-03 13:01:00,
2013-12-03 08:06:00,38.0,35.0,29.92,NE,52,0.0,0.0,89,0.00,,,0.00,WUHU216DAVISVP2,2013-12-03 13:06:00,
2013-12-03 08:11:00,38.3,35.3,29.92,NE,52,0.0,0.0,89,0.00,,,0.00,WUHU216DAVISVP2,2013-12-03 13:11:00,
2013-12-03 08:16:00,38.6,35.6,29.92,NE,52,0.0,0.0,89,0.00,,,0.00,WUHU216DAVISVP2,2013-12-03 13:16:00,
2013-12-03 08:21:00,38.9,35.9,29.92,NE,52,0.0,0.0,89,0.00,,,0.00,WUHU216DAVISVP2,2013-12-03 13:21:00,
2013-12-03 08:26:00,39.5,36.8,29.92,NE,52,0.0,0.0,90,0.00,,,0.00,WUHU216DAVISVP2,2013-12-03 13:26:00,
2013-12-03 08:31:00,39.9,37.2,29.92,NE,52,0.0,0.0,90,0.00,,,0.00,WUHU216DAVISVP2,2013-12-03 13:31:00,
2013-12-03 08:36:00,40.3,37.6,29.93,NE,52,0.0,0.0,90,0.00,,,0.00,WUHU216DAVISVP2,2013-12-03 13:36:00,
2013-12-03 08:41:00,40.5,37.8,29.93,NE,52,0.0,0.0,90,0.00,,,0.00,WUHU216DAVISVP2,2013-12-03 13:41:00,
2013-12-03 08:46:00,41.1,38.3,29.93,NE,52,0.0,0.0,90,0.00,,,0.00,WUHU216DAVISVP2,2013-12-03 13:46:00,
2013-12-03 08:51:00,41.8,39.0,29.93,NE,52,0.0,0.0,90,0.00,,,0.00,WUHU216DAVISVP2,2013-12-03 13:51:00,
2013-12-03 08:56:00,42.2,39.4,29.93,NE,52,0.0,0.0,90,0.00,,,0.00,WUHU216DAVISVP2,2013-12-03 13:56:00,
2013-12-03 09:01:00,42.8,40.0,29.93,NE,52,0.0,0.0,90,0.00,,,0.00,WUHU216DAVISVP2,2013-12-03 14:01:00,
2013-12-03 09:06:00,43.6,40.8,29.94,NE,52,0.0,0.0,90,0.00,,,0.00,WUHU216DAVISVP2,2013-12-03 14:06:00,
2013-12-03 09:11:00,44.3,41.5,29.94,NE,52,0.0,0.0,90,0.00,,,0.00,WUHU216DAVISVP2,2013-12-03 14:11:00,
2013-12-03 09:16:00,44.9,42.1,29.94,NE,52,0.0,0.0,90,0.00,,,0.00,WUHU216DAVISVP2,2013-12-03 14:16:00,
2013-12-03 09:21:00,45.7,42.9,29.94,NE,52,0.0,0.0,90,0.00,,,0.00,WUHU216DAVISVP2,2013-12-03 14:21:00,
2013-12-03 09:26:00,46.4,43.6,29.94,NE,52,0.0,0.0,90,0.00,,,0.00,WUHU216DAVISVP2,2013-12-03 14:26:00,
2013-12-03 09:31:00,47.0,44.2,29.94,NE,52,0.0,0.0,90,0.00,,,0.00,WUHU216DAVISVP2,2013-12-03 14:31:00,
2013-12-03 09:36:00,47.4,44.6,29.94,NE,52,0.0,0.0,90,0.00,,,0.00,WUHU216DAVISVP2,2013-12-03 14:36:00,
2013-12-03 09:41:00,47.9,44.8,29.94,NE,52,0.0,0.0,89,0.00,,,0.00,WUHU216DAVISVP2,2013-12-03 14:41:00,
2013-12-03 09:46:00,48.3,45.2,29.94,NE,52,0.0,0.0,89,0.00,,,0.00,WUHU216DAVISVP2,2013-12-03 14:46:00,
2013-12-03 09:51:00,48.5,45.1,29.94,NE,52,0.0,0.0,88,0.00,,,0.00,WUHU216DAVISVP2,2013-12-03 14:51:00,
2013-12-03 09:56:00,48.8,45.4,29.94,NE,52,0.0,0.0,88,0.00,,,0.00,WUHU216DAVISVP2,2013-12-03 14:56:00,
2013-12-03 10:01:00,48.0,44.3,29.94,NE,52,0.0,0.0,87,0.00,,,0.00,WUHU216DAVISVP2,2013-12-03 15:01:00,
2013-12-03 10:06:00,48.2,44.2,29.94,NE,52,0.0,0.0,86,0.00,,,0.00,WUHU216DAVISVP2,2013-12-03 15:06:00,
2013-12-03 10:11:00,48.6,44.0,29.94,East,88,0.0,0.0,84,0.00,,,0.00,WUHU216DAVISVP2,2013-12-03 15:11:00,
2013-12-03 10:16:00,49.1,44.2,29.94,East,89,0.0,0.0,83,0.00,,,0.00,WUHU216DAVISVP2,2013-12-03 15:16:00,
2013-12-03 10:21:00,49.5,44.6,29.94,East,89,0.0,0.0,83,0.00,,,0.00,WUHU216DAVISVP2,2013-12-03 15:21:00,
2013-12-03 10:26:00,50.1,44.8,29.94,ESE,117,0.0,0.0,82,0.00,,,0.00,WUHU216DAVISVP2,2013-12-03 15:26:00,
2013-12-03 10:31:00,50.5,44.9,29.94,SE,130,0.0,0.0,81,0.00,,,0.00,WUHU216DAVISVP2,2013-12-03 15:31:00,
2013-12-03 10:36:00,51.0,44.8,29.94,SE,127,0.0,0.0,79,0.00,,,0.00,WUHU216DAVISVP2,2013-12-03 15:36:00,
2013-12-03 10:41:00,51.7,45.1,29.94,South,172,0.0,0.0,78,0.00,,,0.00,WUHU216DAVISVP2,2013-12-03 15:41:00,
2013-12-03 10:46:00,52.2,45.3,29.94,SSE,160,0.0,0.0,77,0.00,,,0.00,WUHU216DAVISVP2,2013-12-03 15:46:00,
2013-12-03 10:51:00,52.6,45.7,29.94,South,176,0.0,0.0,77,0.00,,,0.00,WUHU216DAVISVP2,2013-12-03 15:51:00,
2013-12-03 10:56:00,53.1,45.8,29.94,East,99,0.0,0.0,76,0.00,,,0.00,WUHU216DAVISVP2,2013-12-03 15:56:00,
2013-12-03 11:01:00,53.5,46.2,29.94,ESE,112,0.0,0.0,76,0.00,,,0.00,WUHU216DAVISVP2,2013-12-03 16:01:00,
2013-12-03 11:06:00,53.9,46.2,29.93,ESE,116,0.0,0.0,75,0.00,,,0.00,WUHU216DAVISVP2,2013-12-03 16:06:00,
2013-12-03 11:11:00,54.5,46.5,29.93,ESE,117,0.0,0.0,74,0.00,,,0.00,WUHU216DAVISVP2,2013-12-03 16:11:00,
2013-12-03 11:16:00,54.8,46.4,29.93,NNW,336,0.0,0.0,73,0.00,,,0.00,WUHU216DAVISVP2,2013-12-03 16:16:00,
2013-12-03 11:21:00,55.1,46.3,29.93,East,90,0.0,0.0,72,0.00,,,0.00,WUHU216DAVISVP2,2013-12-03 16:21:00,
2013-12-03 11:28:00,55.4,46.6,29.93,NE,48,0.0,0.0,72,0.00,,,0.00,WUHU216DAVISVP2,2013-12-03 16:28:00,
2013-12-03 11:33:00,55.7,46.2,29.93,NE,51,0.0,0.0,70,0.00,,,0.00,WUHU216DAVISVP2,2013-12-03 16:33:00,
2013-12-03 11:39:00,56.2,46.3,29.93,NE,51,0.0,0.0,69,0.00,,,0.00,WUHU216DAVISVP2,2013-12-03 16:39:00,
2013-12-03 11:44:00,56.5,46.6,29.93,NE,51,0.0,0.0,69,0.00,,,0.00,WUHU216DAVISVP2,2013-12-03 16:44:00,
2013-12-03 11:49:00,57.0,46.7,29.92,NE,51,0.0,0.0,68,0.00,,,0.00,WUHU216DAVISVP2,2013-12-03 16:49:00,
2013-12-03 11:54:00,57.3,46.6,29.92,NE,48,0.0,0.0,67,0.00,,,0.00,WUHU216DAVISVP2,2013-12-03 16:54:00,
2013-12-03 11:59:00,57.6,46.5,29.92,NE,48,0.0,0.0,66,0.00,,,0.00,WUHU216DAVISVP2,2013-12-03 16:59:00,
2013-12-03 12:04:00,57.8,46.7,29.92,NE,48,0.0,0.0,66,0.00,,,0.00,WUHU216DAVISVP2,2013-12-03 17:04:00,
2013-12-03 12:09:00,57.8,46.2,29.92,NE,48,0.0,0.0,65,0.00,,,0.00,WUHU216DAVISVP2,2013-12-03 17:09:00,
2013-12-03 12:14:00,57.8,46.7,29.92,NE,42,0.0,0.0,66,0.00,,,0.00,WUHU216DAVISVP2,2013-12-03 17:14:00,
2013-12-03 12:19:00,57.8,46.2,29.91,NE,42,0.0,0.0,65,0.00,,,0.00,WUHU216DAVISVP2,2013-12-03 17:19:00,
2013-12-03 12:24:00,57.8,46.2,29.91,NE,42,0.0,0.0,65,0.00,,,0.00,WUHU216DAVISVP2,2013-12-03 17:24:00,
2013-12-03 12:29:00,57.8,46.2,29.91,NE,42,0.0,0.0,65,0.00,,,0.00,WUHU216DAVISVP2,2013-12-03 17:29:00,
2013-12-03 12:34:00,58.0,46.3,29.91,NE,42,0.0,0.0,65,0.00,,,0.00,WUHU216DAVISVP2,2013-12-03 17:34:00,
2013-12-03 12:39:00,58.0,46.4,29.91,NE,42,0.0,0.0,65,0.00,,,0.00,WUHU216DAVISVP2,2013-12-03 17:39:00,
2013-12-03 12:44:00,58.0,45.9,29.91,NE,42,0.0,0.0,64,0.00,,,0.00,WUHU216DAVISVP2,2013-12-03 17:44:00,
2013-12-03 12:49:00,58.0,45.9,29.91,NE,42,0.0,0.0,64,0.00,,,0.00,WUHU216DAVISVP2,2013-12-03 17:49:00,
2013-12-03 12:54:00,58.1,46.0,29.91,NE,42,0.0,0.0,64,0.00,,,0.00,WUHU216DAVISVP2,2013-12-03 17:54:00,
2013-12-03 12:59:00,58.0,45.2,29.91,NE,42,0.0,0.0,62,0.00,,,0.00,WUHU216DAVISVP2,2013-12-03 17:59:00,
2013-12-03 13:04:00,58.0,45.2,29.90,NE,42,0.0,0.0,62,0.00,,,0.00,WUHU216DAVISVP2,2013-12-03 18:04:00,
2013-12-03 13:09:00,58.0,45.6,29.90,NE,42,0.0,0.0,63,0.00,,,0.00,WUHU216DAVISVP2,2013-12-03 18:09:00,
2013-12-03 13:14:00,58.1,45.3,29.90,NE,42,0.0,0.0,62,0.00,,,0.00,WUHU216DAVISVP2,2013-12-03 18:14:00,
2013-12-03 13:19:00,58.0,44.8,29.90,NE,42,0.0,0.0,61,0.00,,,0.00,WUHU216DAVISVP2,2013-12-03 18:19:00,
2013-12-03 13:24:00,58.1,45.3,29.90,NE,42,0.0,0.0,62,0.00,,,0.00,WUHU216DAVISVP2,2013-12-03 18:24:00,
2013-12-03 13:29:00,58.3,45.5,29.90,NE,42,0.0,0.0,62,0.00,,,0.00,WUHU216DAVISVP2,2013-12-03 18:29:00,
2013-12-03 13:34:00,58.3,45.5,29.90,NE,42,0.0,0.0,62,0.00,,,0.00,WUHU216DAVISVP2,2013-12-03 18:34:00,
2013-12-03 13:39:00,58.1,45.3,29.90,NE,42,0.0,0.0,62,0.00,,,0.00,WUHU216DAVISVP2,2013-12-03 18:39:00,
2013-12-03 13:44:00,57.8,44.9,29.90,NE,42,0.0,0.0,62,0.00,,,0.00,WUHU216DAVISVP2,2013-12-03 18:44:00,
2013-12-03 13:49:00,57.6,44.7,29.90,NE,42,0.0,0.0,62,0.00,,,0.00,WUHU216DAVISVP2,2013-12-03 18:49:00,
2013-12-03 13:54:00,57.5,44.6,29.90,NE,42,0.0,0.0,62,0.00,,,0.00,WUHU216DAVISVP2,2013-12-03 18:54:00,
2013-12-03 13:59:00,57.5,44.6,29.90,NE,42,0.0,0.0,62,0.00,,,0.00,WUHU216DAVISVP2,2013-12-03 18:59:00,
2013-12-03 14:05:00,57.3,44.9,29.90,NE,42,0.0,0.0,63,0.00,,,0.00,WUHU216DAVISVP2,2013-12-03 19:05:00,
2013-12-03 14:10:00,57.2,44.8,29.90,NE,42,0.0,0.0,63,0.00,,,0.00,WUHU216DAVISVP2,2013-12-03 19:10:00,
2013-12-03 14:15:00,57.0,44.7,29.90,NE,42,0.0,0.0,63,0.00,,,0.00,WUHU216DAVISVP2,2013-12-03 19:15:00,
2013-12-03 14:20:00,56.9,45.0,29.90,NE,42,0.0,0.0,64,0.00,,,0.00,WUHU216DAVISVP2,2013-12-03 19:20:00,
2013-12-03 14:25:00,56.7,44.4,29.90,NE,42,0.0,0.0,63,0.00,,,0.00,WUHU216DAVISVP2,2013-12-03 19:25:00,
2013-12-03 14:30:00,56.6,44.7,29.90,NE,42,0.0,0.0,64,0.00,,,0.00,WUHU216DAVISVP2,2013-12-03 19:30:00,
2013-12-03 14:35:00,56.5,44.6,29.90,NE,42,0.0,0.0,64,0.00,,,0.00,WUHU216DAVISVP2,2013-12-03 19:35:00,
2013-12-03 14:40:00,56.3,44.8,29.90,NE,42,0.0,0.0,65,0.00,,,0.00,WUHU216DAVISVP2,2013-12-03 19:40:00,
2013-12-03 14:45:00,56.3,44.8,29.90,NE,42,0.0,0.0,65,0.00,,,0.00,WUHU216DAVISVP2,2013-12-03 19:45:00,
2013-12-03 14:50:00,56.2,44.7,29.90,NE,42,0.0,0.0,65,0.00,,,0.00,WUHU216DAVISVP2,2013-12-03 19:50:00,
2013-12-03 14:55:00,56.2,44.7,29.90,NE,42,0.0,0.0,65,0.00,,,0.00,WUHU216DAVISVP2,2013-12-03 19:55:00,
2013-12-03 15:00:00,56.0,44.8,29.90,NE,42,0.0,0.0,66,0.00,,,0.00,WUHU216DAVISVP2,2013-12-03 20:00:00,
2013-12-03 15:05:00,56.0,44.8,29.91,NE,42,0.0,0.0,66,0.00,,,0.00,WUHU216DAVISVP2,2013-12-03 20:05:00,
2013-12-03 15:10:00,55.9,44.7,29.91,NE,42,0.0,0.0,66,0.00,,,0.00,WUHU216DAVISVP2,2013-12-03 20:10:00,
2013-12-03 15:15:00,55.9,45.2,29.91,NE,42,0.0,0.0,67,0.00,,,0.00,WUHU216DAVISVP2,2013-12-03 20:15:00,
2013-12-03 15:20:00,55.9,44.8,29.91,NE,42,0.0,0.0,66,0.00,,,0.00,WUHU216DAVISVP2,2013-12-03 20:20:00,
2013-12-03 15:25:00,55.9,45.2,29.91,NE,42,0.0,0.0,67,0.00,,,0.00,WUHU216DAVISVP2,2013-12-03 20:25:00,
2013-12-03 15:30:00,55.7,45.0,29.91,NE,42,0.0,0.0,67,0.00,,,0.00,WUHU216DAVISVP2,2013-12-03 20:30:00,
2013-12-03 15:35:00,55.7,45.0,29.92,NE,42,0.0,0.0,67,0.00,,,0.00,WUHU216DAVISVP2,2013-12-03 20:35:00,
2013-12-03 15:40:00,55.6,44.9,29.92,NE,42,0.0,0.0,67,0.00,,,0.00,WUHU216DAVISVP2,2013-12-03 20:40:00,
2013-12-03 15:45:00,55.4,45.1,29.92,NE,42,0.0,0.0,68,0.00,,,0.00,WUHU216DAVISVP2,2013-12-03 20:45:00,
2013-12-03 15:50:00,55.4,45.1,29.92,NE,42,0.0,0.0,68,0.00,,,0.00,WUHU216DAVISVP2,2013-12-03 20:50:00,
2013-12-03 15:55:00,55.3,45.0,29.92,NE,42,0.0,0.0,68,0.00,,,0.00,WUHU216DAVISVP2,2013-12-03 20:55:00,
2013-12-03 16:00:00,55.3,45.0,29.92,NE,42,0.0,0.0,68,0.00,,,0.00,WUHU216DAVISVP2,2013-12-03 21:00:00,
2013-12-03 16:05:00,55.1,45.2,29.92,NE,42,0.0,0.0,69,0.00,,,0.00,WUHU216DAVISVP2,2013-12-03 21:05:00,
2013-12-03 16:10:00,55.1,45.2,29.92,NE,42,0.0,0.0,69,0.00,,,0.00,WUHU216DAVISVP2,2013-12-03 21:10:00,
2013-12-03 16:15:00,55.0,45.1,29.92,NE,42,0.0,0.0,69,0.00,,,0.00,WUHU216DAVISVP2,2013-12-03 21:15:00,
2013-12-03 16:20:00,55.0,45.1,29.93,NE,42,0.0,0.0,69,0.00,,,0.00,WUHU216DAVISVP2,2013-12-03 21:20:00,
2013-12-03 16:25:00,54.8,45.3,29.93,NE,42,0.0,0.0,70,0.00,,,0.00,WUHU216DAVISVP2,2013-12-03 21:25:00,
2013-12-03 16:30:00,54.8,45.3,29.93,NE,42,0.0,0.0,70,0.00,,,0.00,WUHU216DAVISVP2,2013-12-03 21:30:00,
2013-12-03 16:35:00,54.7,45.2,29.93,NE,42,0.0,0.0,70,0.00,,,0.00,WUHU216DAVISVP2,2013-12-03 21:35:00,
2013-12-03 16:40:00,54.5,45.0,29.93,NE,42,0.0,0.0,70,0.00,,,0.00,WUHU216DAVISVP2,2013-12-03 21:40:00,
2013-12-03 16:45:00,54.4,45.3,29.93,NE,42,0.0,0.0,71,0.00,,,0.00,WUHU216DAVISVP2,2013-12-03 21:45:00,
2013-12-03 16:50:00,54.2,45.1,29.94,NE,42,0.0,0.0,71,0.00,,,0.00,WUHU216DAVISVP2,2013-12-03 21:50:00,
2013-12-03 16:55:00,54.1,45.0,29.94,NE,42,0.0,0.0,71,0.00,,,0.00,WUHU216DAVISVP2,2013-12-03 21:55:00,
2013-12-03 17:00:00,53.9,45.2,29.94,NE,42,0.0,0.0,72,0.00,,,0.00,WUHU216DAVISVP2,2013-12-03 22:00:00,
2013-12-03 17:05:00,53.8,45.1,29.94,NE,42,0.0,0.0,72,0.00,,,0.00,WUHU216DAVISVP2,2013-12-03 22:05:00,
2013-12-03 17:10:00,53.6,44.9,29.94,NE,42,0.0,0.0,72,0.00,,,0.00,WUHU216DAVISVP2,2013-12-03 22:10:00,
2013-12-03 17:15:00,53.5,44.8,29.94,NE,42,0.0,0.0,72,0.00,,,0.00,WUHU216DAVISVP2,2013-12-03 22:15:00,
2013-12-03 17:20:00,53.3,44.6,29.94,NE,42,0.0,0.0,72,0.00,,,0.00,WUHU216DAVISVP2,2013-12-03 22:20:00,
2013-12-03 17:25:00,53.2,44.5,29.94,NE,42,0.0,0.0,72,0.00,,,0.00,WUHU216DAVISVP2,2013-12-03 22:25:00,
2013-12-03 17:30:00,53.1,44.4,29.94,NE,42,0.0,0.0,72,0.00,,,0.00,WUHU216DAVISVP2,2013-12-03 22:30:00,
2013-12-03 17:35:00,52.9,44.6,29.94,NE,42,0.0,0.0,73,0.00,,,0.00,WUHU216DAVISVP2,2013-12-03 22:35:00,
2013-12-03 17:40:00,52.8,44.5,29.94,NE,42,0.0,0.0,73,0.00,,,0.00,WUHU216DAVISVP2,2013-12-03 22:40:00,
2013-12-03 17:45:00,52.8,44.8,29.94,NE,42,0.0,0.0,74,0.00,,,0.00,WUHU216DAVISVP2,2013-12-03 22:45:00,
2013-12-03 17:50:00,52.6,44.6,29.94,NE,42,0.0,0.0,74,0.00,,,0.00,WUHU216DAVISVP2,2013-12-03 22:50:00,
2013-12-03 17:55:00,52.5,44.5,29.94,NE,42,0.0,0.0,74,0.00,,,0.00,WUHU216DAVISVP2,2013-12-03 22:55:00,
2013-12-03 18:00:00,52.5,44.5,29.94,NE,42,0.0,0.0,74,0.00,,,0.00,WUHU216DAVISVP2,2013-12-03 23:00:00,
2013-12-03 18:05:00,52.3,44.3,29.95,NE,42,0.0,0.0,74,0.00,,,0.00,WUHU216DAVISVP2,2013-12-03 23:05:00,
2013-12-03 18:10:00,52.2,44.6,29.95,NE,42,0.0,0.0,75,0.00,,,0.00,WUHU216DAVISVP2,2013-12-03 23:10:00,
2013-12-03 18:16:00,52.2,44.6,29.95,NE,42,0.0,0.0,75,0.00,,,0.00,WUHU216DAVISVP2,2013-12-03 23:16:00,
2013-12-03 18:21:00,52.0,44.4,29.95,NE,42,0.0,0.0,75,0.00,,,0.00,WUHU216DAVISVP2,2013-12-03 23:21:00,
2013-12-03 18:25:00,52.0,44.4,29.95,NE,42,0.0,0.0,75,0.00,,,0.00,WUHU216DAVISVP2,2013-12-03 23:25:00,
2013-12-03 18:31:00,51.9,44.3,29.95,NE,42,0.0,0.0,75,0.00,,,0.00,WUHU216DAVISVP2,2013-12-03 23:31:00,
2013-12-03 18:36:00,51.7,44.1,29.96,NE,42,0.0,0.0,75,0.00,,,0.00,WUHU216DAVISVP2,2013-12-03 23:36:00,
2013-12-03 18:41:00,51.6,44.0,29.96,NE,42,0.0,0.0,75,0.00,,,0.00,WUHU216DAVISVP2,2013-12-03 23:41:00,
2013-12-03 18:46:00,51.4,43.8,29.96,NE,42,0.0,0.0,75,0.00,,,0.00,WUHU216DAVISVP2,2013-12-03 23:46:00,
2013-12-03 18:51:00,51.3,43.7,29.96,NE,42,0.0,0.0,75,0.00,,,0.00,WUHU216DAVISVP2,2013-12-03 23:51:00,
2013-12-03 18:56:00,51.1,43.5,29.96,NE,42,0.0,0.0,75,0.00,,,0.00,WUHU216DAVISVP2,2013-12-03 23:56:00,
2013-12-03 19:01:00,51.0,43.4,29.96,NE,42,0.0,0.0,75,0.00,,,0.00,WUHU216DAVISVP2,2013-12-04 00:01:00,
2013-12-03 19:06:00,50.7,43.1,29.95,NE,42,0.0,0.0,75,0.00,,,0.00,WUHU216DAVISVP2,2013-12-04 00:06:00,
2013-12-03 19:11:00,50.4,42.8,29.95,NE,42,0.0,0.0,75,0.00,,,0.00,WUHU216DAVISVP2,2013-12-04 00:11:00,
2013-12-03 19:16:00,50.1,42.9,29.95,NE,42,0.0,0.0,76,0.00,,,0.00,WUHU216DAVISVP2,2013-12-04 00:16:00,
2013-12-03 19:21:00,49.9,42.7,29.95,NE,42,0.0,0.0,76,0.00,,,0.00,WUHU216DAVISVP2,2013-12-04 00:21:00,
2013-12-03 19:26:00,49.6,42.7,29.95,NE,42,0.0,0.0,77,0.00,,,0.00,WUHU216DAVISVP2,2013-12-04 00:26:00,
2013-12-03 19:31:00,49.5,42.6,29.95,NE,42,0.0,0.0,77,0.00,,,0.00,WUHU216DAVISVP2,2013-12-04 00:31:00,
2013-12-03 19:36:00,49.4,42.5,29.95,NE,42,0.0,0.0,77,0.00,,,0.00,WUHU216DAVISVP2,2013-12-04 00:36:00,
2013-12-03 19:41:00,49.1,42.3,29.95,NE,42,0.0,0.0,77,0.00,,,0.00,WUHU216DAVISVP2,2013-12-04 00:41:00,
2013-12-03 19:46:00,48.9,42.1,29.95,NE,42,0.0,0.0,77,0.00,,,0.00,WUHU216DAVISVP2,2013-12-04 00:46:00,
2013-12-03 19:51:00,48.8,42.3,29.95,NE,42,0.0,0.0,78,0.00,,,0.00,WUHU216DAVISVP2,2013-12-04 00:51:00,
2013-12-03 19:56:00,48.5,42.0,29.95,NE,42,0.0,0.0,78,0.00,,,0.00,WUHU216DAVISVP2,2013-12-04 00:56:00,
2013-12-03 20:01:00,48.3,41.8,29.95,NE,42,0.0,0.0,78,0.00,,,0.00,WUHU216DAVISVP2,2013-12-04 01:01:00,
2013-12-03 20:06:00,48.3,41.8,29.95,NE,42,0.0,0.0,78,0.00,,,0.00,WUHU216DAVISVP2,2013-12-04 01:06:00,
2013-12-03 20:11:00,48.2,42.0,29.95,NE,42,0.0,0.0,79,0.00,,,0.00,WUHU216DAVISVP2,2013-12-04 01:11:00,
2013-12-03 20:16:00,48.2,42.0,29.95,NE,42,0.0,0.0,79,0.00,,,0.00,WUHU216DAVISVP2,2013-12-04 01:16:00,
2013-12-03 20:21:00,48.0,41.8,29.95,NE,42,0.0,0.0,79,0.00,,,0.00,WUHU216DAVISVP2,2013-12-04 01:21:00,
2013-12-03 20:26:00,48.0,41.8,29.95,NE,42,0.0,0.0,79,0.00,,,0.00,WUHU216DAVISVP2,2013-12-04 01:26:00,
2013-12-03 20:31:00,47.9,41.7,29.95,NE,42,0.0,0.0,79,0.00,,,0.00,WUHU216DAVISVP2,2013-12-04 01:31:00,
2013-12-03 20:36:00,47.9,42.1,29.95,NE,42,0.0,0.0,80,0.00,,,0.00,WUHU216DAVISVP2,2013-12-04 01:36:00,
2013-12-03 20:41:00,47.9,42.1,29.95,NE,42,0.0,0.0,80,0.00,,,0.00,WUHU216DAVISVP2,2013-12-04 01:41:00,
2013-12-03 20:46:00,48.2,42.7,29.95,NE,42,0.0,0.0,81,0.00,,,0.00,WUHU216DAVISVP2,2013-12-04 01:46:00,
2013-12-03 20:51:00,48.5,43.0,29.96,NE,42,0.0,0.0,81,0.00,,,0.00,WUHU216DAVISVP2,2013-12-04 01:51:00,
2013-12-03 20:56:00,48.8,43.3,29.96,NE,42,0.0,0.0,81,0.00,,,0.00,WUHU216DAVISVP2,2013-12-04 01:56:00,
2013-12-03 21:01:00,49.1,43.5,29.96,NE,42,0.0,0.0,81,0.00,,,0.00,WUHU216DAVISVP2,2013-12-04 02:01:00,
2013-12-03 21:06:00,49.4,43.8,29.95,NE,42,0.0,0.0,81,0.00,,,0.00,WUHU216DAVISVP2,2013-12-04 02:06:00,
2013-12-03 21:11:00,49.6,44.0,29.95,NE,42,0.0,0.0,81,0.00,,,0.00,WUHU216DAVISVP2,2013-12-04 02:11:00,
2013-12-03 21:16:00,49.9,44.3,29.95,NE,42,0.0,0.0,81,0.00,,,0.00,WUHU216DAVISVP2,2013-12-04 02:16:00,
2013-12-03 21:21:00,50.4,44.5,29.95,NE,42,0.0,0.0,80,0.00,,,0.00,WUHU216DAVISVP2,2013-12-04 02:21:00,
2013-12-03 21:26:00,50.5,44.6,29.95,NE,42,0.0,0.0,80,0.00,,,0.00,WUHU216DAVISVP2,2013-12-04 02:26:00,
2013-12-03 21:31:00,50.7,44.8,29.95,NE,42,0.0,0.0,80,0.00,,,0.00,WUHU216DAVISVP2,2013-12-04 02:31:00,
2013-12-03 21:36:00,51.0,45.1,29.95,NE,42,0.0,0.0,80,0.00,,,0.00,WUHU216DAVISVP2,2013-12-04 02:36:00,
2013-12-03 21:41:00,51.0,45.1,29.95,NE,42,0.0,0.0,80,0.00,,,0.00,WUHU216DAVISVP2,2013-12-04 02:41:00,
2013-12-03 21:46:00,51.0,45.1,29.95,NE,42,0.0,0.0,80,0.00,,,0.00,WUHU216DAVISVP2,2013-12-04 02:46:00,
2013-12-03 21:51:00,51.1,45.2,29.95,NE,42,0.0,0.0,80,0.00,,,0.00,WUHU216DAVISVP2,2013-12-04 02:51:00,
2013-12-03 21:56:00,51.1,45.2,29.95,NE,42,0.0,0.0,80,0.00,,,0.00,WUHU216DAVISVP2,2013-12-04 02:56:00,
2013-12-03 22:01:00,51.3,45.1,29.95,NE,42,0.0,0.0,79,0.00,,,0.00,WUHU216DAVISVP2,2013-12-04 03:01:00,
2013-12-03 22:06:00,51.4,45.2,29.95,NE,42,0.0,0.0,79,0.00,,,0.00,WUHU216DAVISVP2,2013-12-04 03:06:00,
2013-12-03 22:11:00,51.6,45.3,29.95,NE,42,0.0,0.0,79,0.00,,,0.00,WUHU216DAVISVP2,2013-12-04 03:11:00,
2013-12-03 22:16:00,51.7,45.4,29.95,NE,47,0.0,0.0,79,0.00,,,0.00,WUHU216DAVISVP2,2013-12-04 03:16:00,
2013-12-03 22:21:00,51.9,45.6,29.96,NE,47,0.0,0.0,79,0.00,,,0.00,WUHU216DAVISVP2,2013-12-04 03:21:00,
2013-12-03 22:26:00,52.0,45.7,29.96,NE,47,0.0,0.0,79,0.00,,,0.00,WUHU216DAVISVP2,2013-12-04 03:26:00,
2013-12-03 22:31:00,52.2,45.6,29.96,NE,47,0.0,0.0,78,0.00,,,0.00,WUHU216DAVISVP2,2013-12-04 03:31:00,
2013-12-03 22:36:00,52.3,45.7,29.96,NE,45,0.0,0.0,78,0.00,,,0.00,WUHU216DAVISVP2,2013-12-04 03:36:00,
2013-12-03 22:41:00,52.3,45.7,29.96,NE,45,0.0,0.0,78,0.00,,,0.00,WUHU216DAVISVP2,2013-12-04 03:41:00,
2013-12-03 22:46:00,52.5,45.9,29.96,NE,45,0.0,0.0,78,0.00,,,0.00,WUHU216DAVISVP2,2013-12-04 03:46:00,
2013-12-03 22:51:00,52.6,46.0,29.96,NE,45,0.0,0.0,78,0.00,,,0.00,WUHU216DAVISVP2,2013-12-04 03:51:00,
2013-12-03 22:56:00,52.8,46.2,29.96,NE,45,0.0,0.0,78,0.00,,,0.00,WUHU216DAVISVP2,2013-12-04 03:56:00,
2013-12-03 23:01:00,52.8,46.2,29.96,NE,45,0.0,0.0,78,0.00,,,0.00,WUHU216DAVISVP2,2013-12-04 04:01:00,
2013-12-03 23:06:00,52.9,46.3,29.96,NE,49,0.0,0.0,78,0.00,,,0.00,WUHU216DAVISVP2,2013-12-04 04:06:00,
2013-12-03 23:11:00,52.9,46.3,29.96,NE,49,0.0,0.0,78,0.00,,,0.00,WUHU216DAVISVP2,2013-12-04 04:11:00,
2013-12-03 23:16:00,53.1,46.1,29.96,NE,49,0.0,0.0,77,0.00,,,0.00,WUHU216DAVISVP2,2013-12-04 04:16:00,
2013-12-03 23:21:00,53.1,46.5,29.97,NE,49,0.0,0.0,78,0.00,,,0.00,WUHU216DAVISVP2,2013-12-04 04:21:00,
2013-12-03 23:26:00,53.1,46.5,29.97,NE,49,0.0,0.0,78,0.00,,,0.00,WUHU216DAVISVP2,2013-12-04 04:26:00,
2013-12-03 23:31:00,53.1,46.5,29.97,NE,52,0.0,0.0,78,0.00,,,0.00,WUHU216DAVISVP2,2013-12-04 04:31:00,
2013-12-03 23:36:00,52.9,46.3,29.97,NE,52,0.0,0.0,78,0.00,,,0.00,WUHU216DAVISVP2,2013-12-04 04:36:00,
2013-12-03 23:41:00,52.9,46.6,29.97,NE,52,0.0,0.0,79,0.00,,,0.00,WUHU216DAVISVP2,2013-12-04 04:41:00,
2013-12-03 23:46:00,52.9,46.6,29.97,NE,52,0.0,0.0,79,0.00,,,0.00,WUHU216DAVISVP2,2013-12-04 04:46:00,
2013-12-03 23:51:00,52.8,46.5,29.97,NE,52,0.0,0.0,79,0.00,,,0.00,WUHU216DAVISVP2,2013-12-04 04:51:00,
2013-12-03 23:56:00,52.8,46.5,29.97,NE,52,0.0,0.0,79,0.00,,,0.00,WUHU216DAVISVP2,2013-12-04 04:56:00,